Time;durP1;ratioP1;P1;durP2;ratioP2;P2;SDS_P1;SDS_P2;PMS_P1;PMS_P2;Temp;Humidity;BMP_temperature;BMP_pressure;BME280_temperature;BME280_humidity;BME280_pressure;Samples;Min_cycle;Max_cycle;Signal;HPM_P1;HPM_P2
2022/01/17 00:01:18;;;;;;;38.55;24.95;;;4.80;83.90;;;;;;4998581;28;20198;-78
2022/01/17 00:03:46;;;;;;;40.17;26.00;;;4.80;84.00;;;;;;5001276;28;20268;-78
2022/01/17 00:06:15;;;;;;;39.95;24.63;;;4.80;83.90;;;;;;5001136;28;20241;-78
2022/01/17 00:08:45;;;;;;;40.55;25.00;;;4.80;83.90;;;;;;5001472;28;20228;-78
2022/01/17 00:11:14;;;;;;;44.42;26.55;;;4.70;83.90;;;;;;5004349;28;20226;-79
2022/01/17 00:13:43;;;;;;;37.65;23.67;;;4.70;84.00;;;;;;4999201;28;20619;-78
2022/01/17 00:16:15;;;;;;;37.55;24.25;;;4.70;84.10;;;;;;4995238;28;20231;-78
2022/01/17 00:19:07;;;;;;;40.83;25.52;;;4.70;84.00;;;;;;4996737;28;20230;-79
2022/01/17 00:21:41;;;;;;;40.08;24.75;;;4.70;84.10;;;;;;4997294;28;20234;-79
2022/01/17 00:24:09;;;;;;;40.05;24.48;;;4.70;84.10;;;;;;4997868;28;20210;-79
2022/01/17 00:26:37;;;;;;;37.80;24.13;;;4.70;84.20;;;;;;5001619;28;20210;-78
2022/01/17 00:29:05;;;;;;;38.80;25.10;;;4.70;84.10;;;;;;4998980;28;20226;-78
2022/01/17 00:31:33;;;;;;;37.03;22.73;;;4.70;84.10;;;;;;4998314;28;20249;-79
2022/01/17 00:34:01;;;;;;;34.40;22.20;;;4.70;84.10;;;;;;5004653;28;20214;-78
2022/01/17 00:36:29;;;;;;;40.63;24.60;;;4.70;84.20;;;;;;5002116;28;20668;-78
2022/01/17 00:38:58;;;;;;;40.97;23.20;;;4.70;84.20;;;;;;5004688;28;20295;-78
2022/01/17 00:41:27;;;;;;;35.75;23.33;;;4.70;84.20;;;;;;5004272;28;20276;-78
2022/01/17 00:43:55;;;;;;;36.05;23.58;;;4.70;84.10;;;;;;4997509;28;20205;-78
2022/01/17 00:46:23;;;;;;;37.75;23.90;;;4.70;84.10;;;;;;4997512;28;20664;-78
2022/01/17 00:48:51;;;;;;;41.67;24.33;;;4.70;84.10;;;;;;5000342;28;20224;-78
2022/01/17 00:51:21;;;;;;;35.22;22.95;;;4.70;84.20;;;;;;4999181;28;20280;-78
2022/01/17 00:53:50;;;;;;;37.83;24.10;;;4.70;84.20;;;;;;5001781;28;20218;-78
2022/01/17 00:56:22;;;;;;;34.70;22.83;;;4.70;84.20;;;;;;4999685;28;20260;-79
2022/01/17 00:58:50;;;;;;;37.25;24.00;;;4.80;84.20;;;;;;4997169;28;20222;-77
2022/01/17 01:01:19;;;;;;;36.63;23.45;;;4.70;84.20;;;;;;4994369;28;20228;-77
2022/01/17 01:03:47;;;;;;;36.88;23.75;;;4.70;84.20;;;;;;4995973;28;20216;-77
2022/01/17 01:06:15;;;;;;;37.25;23.13;;;4.70;84.20;;;;;;4994278;28;20218;-78
2022/01/17 01:08:43;;;;;;;35.97;22.48;;;4.70;84.20;;;;;;4995082;28;20272;-78
2022/01/17 01:11:11;;;;;;;36.88;23.67;;;4.70;84.20;;;;;;5011437;28;20207;-78
2022/01/17 01:13:41;;;;;;;30.55;21.55;;;4.70;84.20;;;;;;4996805;28;20252;-78
2022/01/17 01:16:32;;;;;;;34.70;23.67;;;4.70;84.20;;;;;;4993812;28;20240;-78
2022/01/17 01:19:25;;;;;;;32.63;21.33;;;4.70;84.20;;;;;;5000573;28;20267;-78
2022/01/17 01:27:44;;;;;;;31.40;20.58;;;4.70;84.20;;;;;;4999009;28;20229;-78
2022/01/17 01:30:17;;;;;;;33.38;20.67;;;4.70;84.30;;;;;;4996524;28;20259;-78
2022/01/17 01:32:51;;;;;;;36.67;21.67;;;4.70;84.30;;;;;;5004933;28;20194;-78
2022/01/17 01:35:23;;;;;;;30.98;20.58;;;4.70;84.30;;;;;;4997620;28;20257;-78
2022/01/17 01:37:51;;;;;;;31.60;21.15;;;4.70;84.40;;;;;;5002935;28;20229;-78
2022/01/17 01:40:21;;;;;;;35.47;20.70;;;4.60;84.40;;;;;;5001188;28;20264;-78
2022/01/17 01:42:52;;;;;;;30.77;20.75;;;4.70;84.50;;;;;;4998980;28;20257;-78
2022/01/17 01:45:22;;;;;;;29.15;19.35;;;4.70;84.50;;;;;;5001590;28;20194;-78
2022/01/17 01:47:50;;;;;;;33.35;20.80;;;4.70;84.50;;;;;;5005104;28;20225;-78
2022/01/17 01:50:19;;;;;;;28.60;19.77;;;4.70;84.40;;;;;;4997908;28;20218;-78
2022/01/17 01:52:47;;;;;;;28.40;18.25;;;4.80;84.30;;;;;;5001698;28;20193;-78
2022/01/17 01:55:17;;;;;;;28.73;19.58;;;4.70;84.40;;;;;;4999295;28;20222;-78
2022/01/17 01:57:45;;;;;;;27.38;18.42;;;4.70;84.40;;;;;;4996360;28;20605;-78
2022/01/17 02:00:16;;;;;;;28.45;18.13;;;4.70;84.40;;;;;;5000915;28;20197;-78
2022/01/17 02:02:45;;;;;;;30.02;19.80;;;4.70;84.40;;;;;;4995248;28;20598;-78
2022/01/17 02:05:14;;;;;;;31.88;20.65;;;4.70;84.50;;;;;;5005589;28;20574;-78
2022/01/17 02:07:44;;;;;;;28.17;19.02;;;4.70;84.50;;;;;;5006474;28;20275;-78
2022/01/17 02:10:13;;;;;;;30.55;20.33;;;4.70;84.50;;;;;;5007552;28;20206;-78
2022/01/17 02:12:41;;;;;;;30.67;19.63;;;4.70;84.50;;;;;;5003086;28;20210;-78
2022/01/17 02:15:13;;;;;;;28.67;18.80;;;4.80;84.50;;;;;;4998404;28;20745;-78
2022/01/17 02:17:45;;;;;;;25.80;17.73;;;4.80;84.60;;;;;;5007758;28;20301;-78
2022/01/17 02:20:21;;;;;;;31.65;20.10;;;4.80;84.60;;;;;;4997926;28;20205;-78
2022/01/17 02:22:49;;;;;;;30.45;18.90;;;4.80;84.60;;;;;;5000487;28;20202;-79
2022/01/17 02:25:17;;;;;;;29.42;18.23;;;4.80;84.60;;;;;;5001088;28;20194;-79
2022/01/17 02:27:45;;;;;;;28.55;18.58;;;4.80;84.50;;;;;;5000634;28;20706;-78
2022/01/17 02:30:17;;;;;;;25.60;17.00;;;4.80;84.50;;;;;;5002476;28;20264;-78
2022/01/17 02:32:45;;;;;;;26.42;17.85;;;4.80;84.50;;;;;;5006245;28;20259;-79
2022/01/17 02:35:14;;;;;;;25.90;18.10;;;4.80;84.60;;;;;;5010034;28;20320;-78
2022/01/17 02:37:44;;;;;;;27.02;17.75;;;4.80;84.60;;;;;;4999074;28;20724;-78
2022/01/17 02:40:15;;;;;;;27.02;18.38;;;4.80;84.50;;;;;;5005107;28;20608;-77
2022/01/17 02:42:45;;;;;;;29.00;18.70;;;4.80;84.50;;;;;;5006207;28;20209;-78
2022/01/17 02:45:30;;;;;;;26.70;18.08;;;4.80;84.50;;;;;;5002020;28;20201;-77
2022/01/17 02:47:59;;;;;;;25.60;16.48;;;4.90;84.50;;;;;;5004000;28;20841;-78
2022/01/17 02:50:27;;;;;;;30.05;18.42;;;4.80;84.50;;;;;;5001551;28;20225;-77
2022/01/17 02:53:00;;;;;;;28.60;18.00;;;4.80;84.50;;;;;;5000442;28;20276;-78
2022/01/17 02:55:28;;;;;;;31.05;17.77;;;4.80;84.40;;;;;;5000218;28;20283;-78
2022/01/17 02:57:56;;;;;;;28.13;18.50;;;4.80;84.50;;;;;;5000832;28;20225;-77
2022/01/17 03:00:25;;;;;;;30.17;19.25;;;4.80;84.60;;;;;;5002135;28;20660;-78
2022/01/17 03:02:53;;;;;;;28.52;17.27;;;4.80;84.60;;;;;;5004964;28;20201;-77
2022/01/17 03:05:22;;;;;;;32.33;18.52;;;4.80;84.50;;;;;;5001528;28;20197;-78
2022/01/17 03:07:50;;;;;;;31.13;18.17;;;4.80;84.60;;;;;;5007531;28;20261;-77
2022/01/17 03:10:31;;;;;;;31.70;18.50;;;4.80;84.60;;;;;;5002829;28;20273;-78
2022/01/17 03:13:03;;;;;;;28.63;20.20;;;4.70;84.60;;;;;;5001090;28;20206;-78
2022/01/17 03:15:31;;;;;;;31.73;21.42;;;4.70;84.60;;;;;;4998291;28;20226;-78
2022/01/17 03:17:58;;;;;;;36.33;20.38;;;4.80;84.70;;;;;;5005480;28;20226;-78
2022/01/17 03:20:26;;;;;;;35.55;21.50;;;4.80;84.70;;;;;;5004515;28;20617;-78
2022/01/17 03:22:54;;;;;;;30.92;18.58;;;4.80;84.80;;;;;;5004042;28;20194;-78
2022/01/17 03:25:24;;;;;;;33.85;20.50;;;4.80;84.60;;;;;;4997410;28;20198;-78
2022/01/17 03:27:52;;;;;;;31.60;19.65;;;4.80;84.70;;;;;;5001578;28;20248;-78
2022/01/17 03:30:22;;;;;;;36.97;21.27;;;4.70;84.70;;;;;;5001945;28;20668;-78
2022/01/17 03:32:50;;;;;;;34.20;19.75;;;4.70;84.80;;;;;;5007567;28;20202;-79
2022/01/17 03:35:18;;;;;;;34.65;21.25;;;4.70;84.80;;;;;;4999712;28;20202;-79
2022/01/17 03:37:46;;;;;;;37.00;22.05;;;4.70;84.80;;;;;;5000199;28;20238;-80
2022/01/17 03:40:15;;;;;;;36.00;21.60;;;4.70;84.90;;;;;;5005812;28;20228;-80
2022/01/17 03:42:44;;;;;;;37.50;22.55;;;4.70;84.90;;;;;;5002074;28;20267;-79
2022/01/17 03:45:13;;;;;;;38.17;22.33;;;4.70;84.90;;;;;;5003722;28;20197;-79
2022/01/17 03:47:44;;;;;;;40.25;22.92;;;4.70;84.80;;;;;;5002667;28;20253;-79
2022/01/17 03:50:15;;;;;;;35.97;23.17;;;4.70;84.90;;;;;;4971531;28;1041043;-79
2022/01/17 03:52:43;;;;;;;39.72;23.35;;;4.70;84.80;;;;;;5000552;28;20616;-79
2022/01/17 03:55:14;;;;;;;40.63;23.67;;;4.70;84.90;;;;;;5003554;28;20283;-79
2022/01/17 03:57:44;;;;;;;34.33;21.73;;;4.70;85.00;;;;;;4997927;28;20222;-79
2022/01/17 04:00:19;;;;;;;40.38;23.42;;;4.70;85.00;;;;;;5002440;28;20579;-78
2022/01/17 04:02:47;;;;;;;38.88;22.58;;;4.70;85.00;;;;;;5003928;28;20206;-78
2022/01/17 04:05:16;;;;;;;33.53;21.50;;;4.70;85.00;;;;;;5004607;28;20240;-78
2022/01/17 04:07:44;;;;;;;39.40;21.67;;;4.70;85.00;;;;;;5008583;28;20718;-78
2022/01/17 04:10:12;;;;;;;35.92;23.27;;;4.70;85.00;;;;;;5000162;28;20217;-78
2022/01/17 04:12:41;;;;;;;36.72;21.02;;;4.70;85.00;;;;;;4997377;28;20253;-78
2022/01/17 04:15:12;;;;;;;38.30;21.40;;;4.80;85.00;;;;;;5003624;28;20702;-78
2022/01/17 04:17:42;;;;;;;37.45;22.25;;;4.80;85.00;;;;;;5003125;28;20229;-75
2022/01/17 04:20:16;;;;;;;33.78;20.85;;;4.80;85.00;;;;;;4999092;28;20851;-75
2022/01/17 04:22:51;;;;;;;37.55;20.70;;;4.80;85.00;;;;;;4996102;28;20686;-75
2022/01/17 04:25:19;;;;;;;33.70;20.60;;;4.80;85.00;;;;;;5002067;28;20206;-74
2022/01/17 04:27:48;;;;;;;33.50;19.05;;;4.80;84.90;;;;;;5001101;28;20238;-74
2022/01/17 04:30:18;;;;;;;31.52;19.52;;;4.80;84.90;;;;;;5011296;28;20210;-75
2022/01/17 04:32:47;;;;;;;39.03;21.17;;;4.80;84.90;;;;;;4994371;28;20202;-75
2022/01/17 04:35:20;;;;;;;37.03;20.45;;;4.80;84.90;;;;;;4999769;28;20217;-75
2022/01/17 04:37:51;;;;;;;29.73;18.65;;;4.80;84.90;;;;;;4998798;28;20258;-78
2022/01/17 04:40:19;;;;;;;34.63;20.00;;;4.80;84.90;;;;;;4997378;28;20631;-78
2022/01/17 04:42:49;;;;;;;32.75;18.95;;;4.80;84.80;;;;;;4999578;28;20261;-78
2022/01/17 04:45:20;;;;;;;33.17;18.88;;;4.80;84.90;;;;;;4994833;28;20194;-79
2022/01/17 04:47:50;;;;;;;31.45;18.20;;;4.80;85.00;;;;;;4999830;28;20628;-78
2022/01/17 04:50:20;;;;;;;31.95;18.73;;;4.80;84.90;;;;;;4994872;28;20206;-78
2022/01/17 04:52:48;;;;;;;30.33;18.00;;;4.80;84.90;;;;;;5000382;28;20218;-74
2022/01/17 04:55:17;;;;;;;29.13;18.40;;;4.70;85.00;;;;;;4994837;28;20244;-75
2022/01/17 04:57:46;;;;;;;29.73;17.10;;;4.80;84.90;;;;;;5001094;28;20259;-75
2022/01/17 05:00:17;;;;;;;33.85;18.52;;;4.80;84.90;;;;;;4997489;28;20198;-74
2022/01/17 05:02:46;;;;;;;28.77;17.83;;;4.80;84.90;;;;;;5005044;28;20600;-75
2022/01/17 05:05:16;;;;;;;29.65;17.83;;;4.80;84.90;;;;;;5009406;28;20401;-75
2022/01/17 05:07:44;;;;;;;28.63;17.25;;;4.80;85.00;;;;;;5000405;28;20655;-75
2022/01/17 05:10:14;;;;;;;29.58;17.42;;;4.80;85.00;;;;;;4998811;28;20210;-78
2022/01/17 05:12:42;;;;;;;28.52;17.02;;;4.80;85.00;;;;;;5002870;28;20205;-78
2022/01/17 05:15:23;;;;;;;27.52;16.85;;;4.80;84.90;;;;;;4996793;28;20248;-78
2022/01/17 05:18:23;;;;;;;26.70;17.10;;;4.80;84.90;;;;;;4999597;28;20576;-78
2022/01/17 05:20:51;;;;;;;24.40;15.60;;;4.80;84.90;;;;;;4995190;28;20214;-78
2022/01/17 05:23:19;;;;;;;27.88;16.08;;;4.80;85.00;;;;;;4997692;28;20260;-78
2022/01/17 05:25:47;;;;;;;23.02;15.05;;;4.80;85.00;;;;;;4998581;28;20202;-76
2022/01/17 05:28:15;;;;;;;24.05;14.23;;;4.80;85.00;;;;;;4996389;28;20221;-75
2022/01/17 05:30:43;;;;;;;23.67;14.93;;;4.90;85.00;;;;;;4995728;28;20265;-75
2022/01/17 05:33:12;;;;;;;24.55;14.70;;;4.80;84.90;;;;;;4996179;28;20684;-75
2022/01/17 05:35:40;;;;;;;24.95;14.75;;;4.80;85.00;;;;;;5001219;28;20209;-74
2022/01/17 05:38:12;;;;;;;23.15;14.63;;;4.90;84.90;;;;;;5011733;28;20557;-76
2022/01/17 05:40:40;;;;;;;26.20;14.02;;;4.90;84.90;;;;;;4999134;28;20654;-76
2022/01/17 05:43:08;;;;;;;20.27;12.93;;;4.90;84.90;;;;;;4997327;28;20202;-76
2022/01/17 05:45:35;;;;;;;21.92;13.40;;;4.90;84.90;;;;;;4993875;28;20333;-75
2022/01/17 05:48:04;;;;;;;22.88;13.70;;;4.90;84.90;;;;;;4996861;28;20284;-77
2022/01/17 05:50:33;;;;;;;22.40;12.18;;;4.90;85.00;;;;;;4997042;28;20213;-77
2022/01/17 05:53:01;;;;;;;21.42;12.75;;;4.80;85.00;;;;;;4996026;28;20210;-77
2022/01/17 05:55:29;;;;;;;23.40;14.15;;;4.80;85.00;;;;;;5000475;28;20206;-77
2022/01/17 05:57:59;;;;;;;21.83;13.38;;;4.90;85.00;;;;;;5001919;28;20280;-78
2022/01/17 06:00:27;;;;;;;23.45;14.10;;;4.90;85.00;;;;;;5004143;28;20232;-78
2022/01/17 06:02:55;;;;;;;25.70;13.48;;;4.90;85.00;;;;;;4999296;28;20206;-78
2022/01/17 06:05:23;;;;;;;20.67;14.63;;;4.90;85.00;;;;;;4999724;28;20579;-78
2022/01/17 06:07:52;;;;;;;23.77;12.95;;;4.80;85.00;;;;;;4995175;28;20225;-77
2022/01/17 06:10:20;;;;;;;22.08;14.32;;;4.80;85.10;;;;;;4995612;28;20701;-77
2022/01/17 06:12:48;;;;;;;22.92;14.63;;;4.80;85.00;;;;;;5009870;28;20197;-77
2022/01/17 06:15:18;;;;;;;22.45;13.07;;;4.80;85.10;;;;;;4998389;28;20589;-77
2022/01/17 06:17:46;;;;;;;21.30;13.10;;;4.80;85.10;;;;;;4998757;28;20233;-76
2022/01/17 06:20:14;;;;;;;23.98;14.30;;;4.90;85.00;;;;;;5003053;28;20846;-77
2022/01/17 06:22:42;;;;;;;21.67;14.55;;;4.80;85.00;;;;;;4996275;28;20205;-77
2022/01/17 06:25:12;;;;;;;21.88;14.45;;;4.80;85.10;;;;;;4998161;28;20259;-77
2022/01/17 06:27:40;;;;;;;21.45;14.35;;;4.90;85.10;;;;;;4998455;28;20662;-77
2022/01/17 06:30:11;;;;;;;20.55;12.77;;;4.90;85.10;;;;;;4999853;28;20264;-77
2022/01/17 06:32:39;;;;;;;19.02;12.75;;;4.90;85.00;;;;;;4996583;28;20619;-77
2022/01/17 06:35:09;;;;;;;20.30;12.80;;;4.90;85.00;;;;;;5001455;28;20212;-77
2022/01/17 06:37:38;;;;;;;20.30;12.65;;;4.80;85.10;;;;;;5001361;28;20758;-76
2022/01/17 06:40:07;;;;;;;21.75;13.82;;;4.90;85.10;;;;;;4993204;28;20210;-75
2022/01/17 06:42:37;;;;;;;20.58;12.77;;;4.90;85.10;;;;;;5000145;28;20208;-76
2022/01/17 06:45:06;;;;;;;21.83;14.18;;;4.90;85.10;;;;;;4995250;28;20751;-76
2022/01/17 06:47:34;;;;;;;21.48;13.05;;;4.90;85.10;;;;;;4999488;28;20222;-76
2022/01/17 06:50:04;;;;;;;19.67;13.25;;;4.90;85.10;;;;;;4995816;28;20220;-76
2022/01/17 06:52:32;;;;;;;19.23;12.55;;;4.90;85.20;;;;;;5000113;28;20609;-76
2022/01/17 06:55:05;;;;;;;21.00;13.23;;;4.90;85.10;;;;;;4999892;28;20653;-77
2022/01/17 06:57:33;;;;;;;19.65;12.82;;;4.90;85.10;;;;;;5000258;28;20268;-77
2022/01/17 07:00:05;;;;;;;22.00;13.93;;;4.90;85.00;;;;;;5005186;28;20214;-78
2022/01/17 07:02:33;;;;;;;24.98;15.50;;;4.90;85.10;;;;;;5015164;28;20641;-78
2022/01/17 07:05:02;;;;;;;21.50;14.43;;;4.80;85.10;;;;;;5002266;28;20285;-78
2022/01/17 07:07:30;;;;;;;21.55;14.23;;;4.90;85.10;;;;;;4999938;28;20293;-78
2022/01/17 07:10:04;;;;;;;24.00;15.10;;;4.80;85.20;;;;;;5000631;28;20225;-78
2022/01/17 07:12:32;;;;;;;24.33;14.60;;;4.80;85.20;;;;;;4996945;28;20260;-78
2022/01/17 07:15:00;;;;;;;22.80;14.32;;;4.90;85.10;;;;;;4996912;28;20199;-78
2022/01/17 07:17:29;;;;;;;22.58;14.98;;;4.80;85.20;;;;;;4999336;28;20242;-78
2022/01/17 07:19:57;;;;;;;24.80;15.15;;;4.90;85.20;;;;;;4998724;28;20599;-78
2022/01/17 07:22:27;;;;;;;24.70;14.40;;;4.80;85.20;;;;;;4999786;28;20198;-78
2022/01/17 07:24:56;;;;;;;28.30;15.70;;;4.80;85.20;;;;;;5005762;28;20248;-78
2022/01/17 07:27:24;;;;;;;24.90;15.27;;;4.80;85.30;;;;;;4999368;28;20225;-78
2022/01/17 07:29:52;;;;;;;24.73;15.20;;;4.80;85.30;;;;;;5002130;28;20577;-78
2022/01/17 07:32:20;;;;;;;24.85;16.88;;;4.80;85.40;;;;;;5000180;28;20680;-79
2022/01/17 07:34:49;;;;;;;23.90;14.43;;;4.90;85.30;;;;;;5003215;28;20202;-78
2022/01/17 07:37:19;;;;;;;22.75;15.52;;;4.90;85.20;;;;;;5006771;28;20222;-79
2022/01/17 07:39:49;;;;;;;22.40;14.93;;;4.90;85.20;;;;;;5005768;28;20264;-79
2022/01/17 07:42:23;;;;;;;22.83;14.88;;;4.90;85.30;;;;;;5002517;28;20253;-78
2022/01/17 07:44:54;;;;;;;24.35;14.48;;;4.90;85.30;;;;;;5003365;28;20201;-79
2022/01/17 07:47:38;;;;;;;21.95;13.57;;;4.90;85.30;;;;;;4996333;28;20703;-79
2022/01/17 07:50:13;;;;;;;24.73;13.23;;;4.90;85.30;;;;;;5004141;28;20222;-79
2022/01/17 07:52:42;;;;;;;21.95;14.38;;;4.90;85.30;;;;;;5004266;28;20205;-78
2022/01/17 07:55:11;;;;;;;24.67;14.07;;;4.90;85.30;;;;;;5000152;28;20256;-79
2022/01/17 07:57:41;;;;;;;21.23;14.07;;;4.90;85.30;;;;;;5003674;28;20226;-79
2022/01/17 08:00:12;;;;;;;21.15;13.18;;;4.90;85.30;;;;;;5001421;28;20241;-79
2022/01/17 08:02:46;;;;;;;25.23;14.13;;;4.90;85.30;;;;;;5006301;28;20215;-79
2022/01/17 08:05:15;;;;;;;19.40;13.18;;;4.90;85.30;;;;;;5006056;28;20264;-78
2022/01/17 08:07:44;;;;;;;18.83;12.35;;;4.90;85.30;;;;;;4998739;28;20230;-79
2022/01/17 08:10:13;;;;;;;19.55;12.77;;;4.90;85.40;;;;;;5004683;28;20201;-79
2022/01/17 08:12:41;;;;;;;16.60;11.18;;;4.90;85.40;;;;;;4999878;28;20236;-79
2022/01/17 08:15:11;;;;;;;17.35;11.60;;;4.90;85.40;;;;;;4996304;28;20261;-79
2022/01/17 08:17:39;;;;;;;17.80;11.13;;;4.90;85.50;;;;;;5003775;28;20236;-79
2022/01/17 08:20:08;;;;;;;16.55;10.50;;;4.90;85.60;;;;;;4999697;28;20206;-79
2022/01/17 08:22:38;;;;;;;19.70;11.75;;;4.90;85.50;;;;;;4996927;28;20244;-78
2022/01/17 08:25:07;;;;;;;19.70;12.20;;;5.00;85.50;;;;;;4999298;28;20206;-78
2022/01/17 08:27:35;;;;;;;17.60;11.40;;;5.00;85.50;;;;;;4996927;28;20227;-78
2022/01/17 08:30:04;;;;;;;16.98;11.23;;;5.10;85.30;;;;;;4998034;28;20206;-77
2022/01/17 08:32:52;;;;;;;19.23;11.00;;;5.10;85.30;;;;;;4994742;28;20230;-77
2022/01/17 08:35:21;;;;;;;19.13;11.07;;;5.10;85.30;;;;;;5002796;28;20211;-77
2022/01/17 08:37:50;;;;;;;16.38;9.70;;;5.10;85.30;;;;;;5000715;28;20260;-77
2022/01/17 08:40:19;;;;;;;15.23;10.05;;;5.20;85.20;;;;;;4994344;28;20606;-77
2022/01/17 08:42:47;;;;;;;15.15;10.13;;;5.20;85.20;;;;;;4995908;28;20658;-77
2022/01/17 08:45:17;;;;;;;17.67;9.93;;;5.20;85.10;;;;;;4996174;28;20202;-77
2022/01/17 08:48:05;;;;;;;16.13;10.60;;;5.20;85.10;;;;;;4999270;28;20226;-77
2022/01/17 08:50:33;;;;;;;17.33;10.93;;;5.20;85.10;;;;;;4997128;28;20621;-77
2022/01/17 08:53:02;;;;;;;18.20;10.00;;;5.20;85.10;;;;;;4995358;28;20267;-77
2022/01/17 08:55:30;;;;;;;14.80;9.18;;;5.20;85.00;;;;;;4995407;28;20202;-77
2022/01/17 08:58:00;;;;;;;16.20;9.35;;;5.20;85.10;;;;;;4994639;28;20222;-77
2022/01/17 09:00:28;;;;;;;17.15;9.70;;;5.20;85.10;;;;;;4995942;28;20210;-77
2022/01/17 09:03:16;;;;;;;15.25;10.13;;;5.20;85.00;;;;;;4996014;28;20202;-77
2022/01/17 09:05:45;;;;;;;14.60;9.60;;;5.30;85.00;;;;;;4997675;28;20290;-77
2022/01/17 09:08:14;;;;;;;16.65;9.90;;;5.30;85.10;;;;;;5000871;28;20221;-77
2022/01/17 09:10:42;;;;;;;14.88;8.57;;;5.30;85.10;;;;;;4999609;28;20254;-77
2022/01/17 09:13:10;;;;;;;14.45;9.13;;;5.30;85.00;;;;;;4997043;28;20767;-77
2022/01/17 09:15:38;;;;;;;18.17;9.48;;;5.30;84.90;;;;;;4991901;28;20318;-77
2022/01/17 09:18:07;;;;;;;12.30;8.48;;;5.30;85.00;;;;;;4992920;28;20272;-77
2022/01/17 09:20:35;;;;;;;13.43;8.43;;;5.40;84.90;;;;;;4995398;28;20213;-77
2022/01/17 09:23:04;;;;;;;16.95;9.20;;;5.40;84.90;;;;;;4999539;28;20220;-77
2022/01/17 09:25:34;;;;;;;14.23;8.50;;;5.40;84.90;;;;;;4992594;28;20202;-77
2022/01/17 09:28:02;;;;;;;14.30;9.00;;;5.40;84.80;;;;;;4999738;28;20253;-77
2022/01/17 09:30:30;;;;;;;14.50;8.35;;;5.50;84.80;;;;;;4996214;28;20206;-77
2022/01/17 09:32:59;;;;;;;11.90;7.70;;;5.50;84.50;;;;;;4999444;28;20206;-77
2022/01/17 09:35:27;;;;;;;16.40;8.85;;;5.50;84.60;;;;;;4991152;28;20212;-77
2022/01/17 09:37:55;;;;;;;11.63;7.63;;;5.50;84.60;;;;;;4995228;28;20279;-77
2022/01/17 09:40:23;;;;;;;12.30;7.85;;;5.50;84.60;;;;;;4996797;28;20217;-77
2022/01/17 09:42:54;;;;;;;15.02;8.05;;;5.50;84.60;;;;;;4994000;28;20765;-77
2022/01/17 09:45:23;;;;;;;13.60;7.97;;;5.50;84.60;;;;;;4998572;28;20210;-77
2022/01/17 09:47:52;;;;;;;13.25;7.85;;;5.60;84.60;;;;;;5000598;28;20230;-77
2022/01/17 09:50:22;;;;;;;16.48;8.00;;;5.60;84.20;;;;;;5001639;28;20268;-77
2022/01/17 09:52:53;;;;;;;14.75;7.80;;;5.60;84.50;;;;;;4998944;28;20198;-77
2022/01/17 09:55:23;;;;;;;11.88;7.75;;;5.60;84.40;;;;;;4999361;28;20252;-77
2022/01/17 09:57:54;;;;;;;11.65;7.40;;;5.60;84.40;;;;;;4999836;28;20289;-77
2022/01/17 10:00:27;;;;;;;14.48;7.45;;;5.60;84.30;;;;;;4999895;28;20205;-77
2022/01/17 10:02:58;;;;;;;15.13;7.80;;;5.70;84.40;;;;;;4993192;28;20208;-77
2022/01/17 10:05:27;;;;;;;11.15;7.10;;;5.70;84.20;;;;;;4994004;28;20224;-78
2022/01/17 10:08:00;;;;;;;17.70;8.07;;;5.70;84.40;;;;;;5009603;28;20237;-77
2022/01/17 10:10:42;;;;;;;11.35;7.68;;;5.70;84.30;;;;;;4994721;28;20210;-77
2022/01/17 10:13:14;;;;;;;12.45;7.57;;;5.70;84.10;;;;;;4990676;28;20218;-77
2022/01/17 10:16:00;;;;;;;15.52;8.52;;;5.70;84.10;;;;;;4996294;28;20704;-77
2022/01/17 10:18:41;;;;;;;13.07;7.22;;;5.70;84.00;;;;;;5002404;28;20257;-77
2022/01/17 10:21:13;;;;;;;11.68;7.32;;;5.80;84.00;;;;;;5000193;28;20199;-77
2022/01/17 10:26:57;;;;;;;13.55;7.20;;;5.80;83.90;;;;;;5014007;28;20738;-77
2022/01/17 10:35:14;;;;;;;11.52;6.60;;;5.80;83.60;;;;;;5006088;28;20680;-78
2022/01/17 10:37:55;;;;;;;13.25;6.90;;;5.80;83.80;;;;;;5003144;28;20642;-77
2022/01/17 10:40:24;;;;;;;13.48;7.38;;;5.90;83.80;;;;;;5003000;28;20255;-78
2022/01/17 10:42:52;;;;;;;10.18;6.75;;;5.90;83.80;;;;;;5006940;28;20324;-78
2022/01/17 10:45:23;;;;;;;10.35;6.50;;;5.90;83.90;;;;;;5007237;28;20253;-77
2022/01/17 10:47:54;;;;;;;12.85;6.60;;;5.90;83.60;;;;;;4999780;28;20230;-78
2022/01/17 10:50:25;;;;;;;12.40;6.55;;;5.90;83.60;;;;;;5005283;28;20207;-77
2022/01/17 10:52:55;;;;;;;10.68;6.63;;;6.00;83.60;;;;;;5002472;28;20258;-77
2022/01/17 10:55:25;;;;;;;12.65;6.50;;;6.00;83.60;;;;;;5005104;28;20289;-77
2022/01/17 10:57:56;;;;;;;10.00;6.50;;;6.00;83.30;;;;;;4998939;28;20219;-77
2022/01/17 11:00:27;;;;;;;12.15;6.60;;;6.00;83.20;;;;;;5002584;28;20275;-77
2022/01/17 11:02:57;;;;;;;9.82;6.10;;;6.00;83.20;;;;;;5003944;28;20214;-77
2022/01/17 11:05:28;;;;;;;9.13;6.45;;;6.00;83.30;;;;;;4998507;28;20255;-74
2022/01/17 11:08:00;;;;;;;11.75;6.70;;;6.00;83.20;;;;;;4986454;28;20354;-75
2022/01/17 11:10:30;;;;;;;13.05;7.40;;;6.00;83.10;;;;;;5001780;28;20249;-74
2022/01/17 11:13:00;;;;;;;10.57;6.88;;;6.10;83.20;;;;;;4999290;28;20358;-75
2022/01/17 11:15:32;;;;;;;11.02;6.60;;;6.10;82.90;;;;;;5017877;28;20301;-75
2022/01/17 11:18:05;;;;;;;10.18;6.50;;;6.10;82.90;;;;;;4997688;28;20971;-75
2022/01/17 11:20:34;;;;;;;12.55;7.30;;;6.10;82.90;;;;;;5004389;28;20285;-75
2022/01/17 11:23:03;;;;;;;10.88;7.13;;;6.10;82.70;;;;;;5000582;28;20217;-75
2022/01/17 11:25:34;;;;;;;12.15;7.35;;;6.10;82.80;;;;;;4998626;28;20210;-75
2022/01/17 11:28:05;;;;;;;10.52;6.70;;;6.00;82.80;;;;;;4998735;28;20256;-75
2022/01/17 11:30:36;;;;;;;12.93;7.97;;;6.00;82.70;;;;;;4998216;28;20262;-75
2022/01/17 11:33:07;;;;;;;13.18;7.70;;;6.00;82.80;;;;;;4994414;28;20212;-75
2022/01/17 11:35:40;;;;;;;16.77;8.35;;;6.00;82.70;;;;;;5000983;28;20216;-75
2022/01/17 11:38:11;;;;;;;13.20;7.80;;;6.10;82.60;;;;;;4997341;28;20333;-75
2022/01/17 11:40:41;;;;;;;12.27;7.65;;;6.10;82.80;;;;;;5004576;28;20634;-75
2022/01/17 11:43:32;;;;;;;10.65;6.70;;;6.10;82.60;;;;;;5003883;28;20605;-75
2022/01/17 11:46:21;;;;;;;11.15;7.20;;;6.10;82.50;;;;;;4997234;28;20203;-75
2022/01/17 11:48:52;;;;;;;10.65;6.55;;;6.10;82.50;;;;;;4997498;28;20711;-75
2022/01/17 11:51:21;;;;;;;11.55;6.00;;;6.10;82.50;;;;;;4994374;28;20209;-75
2022/01/17 11:53:53;;;;;;;12.52;6.72;;;6.10;82.60;;;;;;4998107;28;20198;-75
2022/01/17 11:56:41;;;;;;;10.43;6.05;;;6.10;82.50;;;;;;4993546;28;20209;-75
2022/01/17 11:59:34;;;;;;;17.08;7.18;;;6.20;82.40;;;;;;4993627;28;20300;-75
2022/01/17 12:02:36;;;;;;;9.38;6.22;;;6.20;82.50;;;;;;4994778;28;20202;-75
2022/01/17 12:05:42;;;;;;;9.68;6.40;;;6.20;82.30;;;;;;4998859;28;20558;-75
2022/01/17 12:08:15;;;;;;;14.98;6.80;;;6.20;82.10;;;;;;5004827;28;20238;-75
2022/01/17 12:10:46;;;;;;;11.85;6.90;;;6.10;82.00;;;;;;4997562;28;20257;-75
2022/01/17 12:13:43;;;;;;;10.98;6.72;;;6.10;82.20;;;;;;4998734;28;20634;-75
2022/01/17 12:16:17;;;;;;;11.82;7.20;;;6.20;82.10;;;;;;4964202;28;20561;-75
2022/01/17 12:19:07;;;;;;;13.50;9.45;;;6.20;81.90;;;;;;4989191;28;20778;-76
2022/01/17 12:21:40;;;;;;;11.85;7.18;;;6.20;81.60;;;;;;4998100;28;20271;-75
2022/01/17 12:24:46;;;;;;;11.75;6.80;;;6.20;81.90;;;;;;4996854;28;20195;-75
2022/01/17 12:27:18;;;;;;;12.00;6.97;;;6.20;81.90;;;;;;4997432;28;20198;-75
2022/01/17 12:29:56;;;;;;;11.27;5.93;;;6.20;81.60;;;;;;4999749;28;20204;-75
2022/01/17 12:32:51;;;;;;;11.35;6.57;;;6.20;81.80;;;;;;4999317;28;20696;-75
2022/01/17 12:35:30;;;;;;;13.38;6.82;;;6.20;81.30;;;;;;5001409;28;20238;-77
2022/01/17 12:38:07;;;;;;;11.65;6.90;;;6.20;81.80;;;;;;4996927;28;20227;-76
2022/01/17 12:40:55;;;;;;;10.95;7.68;;;6.30;81.40;;;;;;5000729;28;20247;-76
2022/01/17 12:43:30;;;;;;;13.30;7.55;;;6.20;81.50;;;;;;5000465;28;20203;-77
2022/01/17 12:46:00;;;;;;;14.75;7.88;;;6.20;81.50;;;;;;5000580;28;20610;-75
2022/01/17 12:48:31;;;;;;;12.18;6.70;;;6.20;81.40;;;;;;4992571;28;20231;-77
2022/01/17 12:51:03;;;;;;;13.05;8.15;;;6.30;81.70;;;;;;5000204;28;20277;-76
2022/01/17 12:53:31;;;;;;;13.02;6.97;;;6.30;81.60;;;;;;4997994;28;20292;-77
2022/01/17 12:56:01;;;;;;;10.80;6.82;;;6.30;81.50;;;;;;4998562;28;20198;-76
2022/01/17 12:58:32;;;;;;;16.02;7.75;;;6.30;81.30;;;;;;4998792;28;20222;-77
2022/01/17 13:01:02;;;;;;;11.63;7.03;;;6.30;81.40;;;;;;4996951;28;20227;-75
2022/01/17 13:03:33;;;;;;;15.18;7.50;;;6.30;81.40;;;;;;4996611;28;20198;-77
2022/01/17 13:06:06;;;;;;;10.50;6.78;;;6.30;81.30;;;;;;4996811;28;20300;-76
2022/01/17 13:08:35;;;;;;;13.32;7.00;;;6.30;81.40;;;;;;5003537;28;20231;-77
2022/01/17 13:11:11;;;;;;;13.70;8.05;;;6.30;81.30;;;;;;5000162;28;20687;-76
2022/01/17 13:13:45;;;;;;;9.35;6.90;;;6.30;81.20;;;;;;5000313;28;20202;-76
2022/01/17 13:16:13;;;;;;;12.15;7.57;;;6.40;81.40;;;;;;5000375;28;20207;-77